Time;durP1;ratioP1;P1;durP2;ratioP2;P2;SDS_P1;SDS_P2;PMS_P1;PMS_P2;Temp;Humidity;BMP_temperature;BMP_pressure;BME280_temperature;BME280_humidity;BME280_pressure;Samples;Min_cycle;Max_cycle;Signal;HPM_P1;HPM_P2
2021/12/21 00:00:56;;;;;;;;;;;;;;;-1.14;94.04;98806.74;1789677;79;22592;-84
2021/12/21 00:03:24;;;;;;;;;;;;;;;-1.13;94.01;98809.73;1786619;78;26132;-84
2021/12/21 00:05:50;;;;;;;;;;;;;;;-1.11;94.01;98800.72;1795038;79;24501;-89
2021/12/21 00:08:17;;;;;;;;;;;;;;;-1.11;93.98;98806.70;1795831;79;20516;-84
2021/12/21 00:10:46;;;;;;;;;;;;;;;-1.12;93.95;98802.88;1792959;79;24801;-87
2021/12/21 00:16:10;;;;;;;;;;;;;;;-1.08;93.91;98806.64;1785948;78;26098;-87
2021/12/21 00:18:38;;;;;;;;;;;;;;;-1.06;93.90;98803.63;1792597;79;24528;-86
2021/12/21 00:23:35;;;;;;;;;;;;;;;-1.00;93.90;98809.94;1765016;78;24668;-87
2021/12/21 00:26:03;;;;;;;;;;;;;;;-1.05;93.86;98800.19;1783513;79;22602;-88
2021/12/21 00:28:36;;;;;;;;;;;;;;;-0.97;93.85;98807.73;1794485;78;26601;-83
2021/12/21 00:30:57;;;;;;;;;;;;;;;-0.94;93.85;98811.12;1786628;78;25283;-83
2021/12/21 00:33:23;;;;;;;;;;;;;;;-0.92;93.83;98818.34;1786036;79;20242;-87
2021/12/21 00:35:49;;;;;;;;;;;;;;;-0.92;93.82;98812.35;1728198;80;20981;-88
2021/12/21 00:38:15;;;;;;;;;;;;;;;-0.90;93.79;98815.31;1762235;80;22045;-87
2021/12/21 00:40:41;;;;;;;;;;;;;;;-0.91;93.76;98813.62;1764615;80;26091;-87
2021/12/21 00:43:07;;;;;;;;;;;;;;;-0.86;93.76;98819.52;1757553;80;24387;-87
2021/12/21 00:45:33;;;;;;;;;;;;;;;-0.80;93.76;98817.70;1762701;80;20471;-87
2021/12/21 00:48:00;;;;;;;;;;;;;;;-0.74;93.79;98818.45;1760186;80;25564;-87
2021/12/21 00:50:28;;;;;;;;;;;;;;;-0.70;93.81;98813.66;1763374;80;21960;-88
2021/12/21 00:52:55;;;;;;;;;;;;;;;-0.65;93.80;98813.56;1757579;80;25909;-89
2021/12/21 00:55:27;;;;;;;;;;;;;;;-0.59;93.84;98809.59;1757649;80;24668;-89
2021/12/21 00:57:53;;;;;;;;;;;;;;;-0.58;93.82;98824.99;1749479;80;20150;-87
2021/12/21 01:00:21;;;;;;;;;;;;;;;-0.58;93.79;98821.14;1762358;80;24790;-88
2021/12/21 01:03:00;;;;;;;;;;;;;;;-0.58;93.78;98817.28;1688088;84;21998;-86
2021/12/21 01:05:32;;;;;;;;;;;;;;;-0.56;93.74;98821.12;1683569;84;26170;-88
2021/12/21 01:07:55;;;;;;;;;;;;;;;-0.58;93.71;98821.14;1698784;83;24588;-87
2021/12/21 01:10:48;;;;;;;;;;;;;;;-0.60;93.68;98819.49;1701908;82;20210;-87
2021/12/21 01:15:53;;;;;;;;;;;;;;;-0.64;93.57;98808.84;1695546;84;22054;-86
2021/12/21 01:18:09;;;;;;;;;;;;;;;-0.65;93.52;98818.27;1668280;83;25958;-86
2021/12/21 01:20:45;;;;;;;;;;;;;;;-0.63;93.47;98817.81;1693486;82;24600;-87
2021/12/21 01:23:48;;;;;;;;;;;;;;;-0.62;93.42;98823.80;1699974;83;20529;-87
2021/12/21 01:26:08;;;;;;;;;;;;;;;-0.64;93.35;98822.53;1689849;84;24793;-87
2021/12/21 01:34:16;;;;;;;;;;;;;;;-0.69;93.18;98817.92;1695114;83;24513;-87
2021/12/21 01:36:48;;;;;;;;;;;;;;;-0.71;93.12;98829.94;1696473;84;20498;-88
2021/12/21 01:41:49;;;;;;;;;;;;;;;-0.79;92.99;98826.68;1722289;82;22465;-87
2021/12/21 01:44:22;;;;;;;;;;;;;;;-0.76;93.01;98824.51;1718945;82;26018;-90
2021/12/21 01:49:38;;;;;;;;;;;;;;;-0.68;93.01;98822.19;1720137;82;20310;-88
2021/12/21 01:52:04;;;;;;;;;;;;;;;-0.66;93.00;98814.03;1665512;84;24467;-88
2021/12/21 01:54:30;;;;;;;;;;;;;;;-0.63;93.02;98815.24;1717746;82;21903;-88
2021/12/21 01:56:56;;;;;;;;;;;;;;;-0.61;93.02;98809.64;1722771;82;26018;-88
2021/12/21 01:59:22;;;;;;;;;;;;;;;-0.58;92.99;98810.01;1698932;82;24425;-88
2021/12/21 02:01:49;;;;;;;;;;;;;;;-0.55;93.02;98800.53;1721522;82;20136;-88
2021/12/21 02:04:17;;;;;;;;;;;;;;;-0.50;93.02;98809.00;1730150;81;24749;-88
2021/12/21 02:06:43;;;;;;;;;;;;;;;-0.49;93.03;98806.81;1720928;82;22034;-89
2021/12/21 02:09:09;;;;;;;;;;;;;;;-0.47;93.03;98806.36;1718950;82;25976;-89
2021/12/21 02:11:37;;;;;;;;;;;;;;;-0.49;93.00;98803.39;1721388;82;24456;-88
2021/12/21 02:14:09;;;;;;;;;;;;;;;-0.52;92.97;98804.75;1724561;82;20523;-89
2021/12/21 02:16:51;;;;;;;;;;;;;;;-0.54;92.91;98803.92;1724903;82;25403;-85
2021/12/21 02:19:20;;;;;;;;;;;;;;;-0.58;92.86;98799.30;1719875;82;22758;-84
2021/12/21 02:21:44;;;;;;;;;;;;;;;-0.61;92.79;98802.38;1726415;82;26126;-84
2021/12/21 02:24:10;;;;;;;;;;;;;;;-0.63;92.71;98802.83;1722764;82;24422;-85
2021/12/21 02:26:40;;;;;;;;;;;;;;;-0.65;92.65;98804.56;1717865;82;20325;-89
2021/12/21 02:29:15;;;;;;;;;;;;;;;-0.66;92.58;98810.17;1726303;82;24956;-85
2021/12/21 02:31:37;;;;;;;;;;;;;;;-0.67;92.55;98805.91;1728826;81;21993;-88
2021/12/21 02:34:04;;;;;;;;;;;;;;;-0.67;92.51;98800.77;1729638;80;25905;-89
2021/12/21 02:36:32;;;;;;;;;;;;;;;-0.68;92.44;98797.78;1739639;82;24489;-87
2021/12/21 02:38:58;;;;;;;;;;;;;;;-0.71;92.39;98796.53;1747294;81;20315;-88
2021/12/21 02:41:25;;;;;;;;;;;;;;;-0.73;92.36;98794.45;1746539;81;24913;-88
2021/12/21 02:44:04;;;;;;;;;;;;;;;-0.71;92.33;98799.57;1748476;82;21979;-89
2021/12/21 02:46:30;;;;;;;;;;;;;;;-0.70;92.32;98792.25;1742637;82;25938;-89
2021/12/21 02:48:57;;;;;;;;;;;;;;;-0.71;92.31;98793.97;1744286;81;24528;-87
2021/12/21 02:51:23;;;;;;;;;;;;;;;-0.66;92.33;98791.33;1749372;81;20261;-87
2021/12/21 02:53:49;;;;;;;;;;;;;;;-0.68;92.28;98791.36;1742562;82;24756;-88
2021/12/21 02:56:31;;;;;;;;;;;;;;;-0.70;92.26;98791.81;1739807;81;22133;-89
2021/12/21 02:59:10;;;;;;;;;;;;;;;-0.72;92.23;98787.16;1744687;80;26224;-89
2021/12/21 03:01:39;;;;;;;;;;;;;;;-0.77;92.18;98791.54;1746698;81;24417;-88
2021/12/21 03:04:07;;;;;;;;;;;;;;;-0.82;92.12;98779.22;1747960;80;21198;-90
2021/12/21 03:07:24;;;;;;;;;;;;;;;-0.85;92.10;98777.55;1743803;82;24812;-90
2021/12/21 03:09:55;;;;;;;;;;;;;;;-0.86;92.08;98778.41;1737614;82;22012;-87
2021/12/21 03:14:43;;;;;;;;;;;;;;;-0.85;92.10;98777.55;1740646;82;24487;-84
2021/12/21 03:17:10;;;;;;;;;;;;;;;-0.83;92.12;98777.95;1740629;82;20161;-84
2021/12/21 03:19:36;;;;;;;;;;;;;;;-0.82;92.14;98779.66;1747460;81;24764;-83
2021/12/21 03:22:02;;;;;;;;;;;;;;;-0.80;92.17;98780.02;1737383;81;21944;-88
2021/12/21 03:24:28;;;;;;;;;;;;;;;-0.77;92.21;98781.70;1746256;81;26011;-86
2021/12/21 03:26:55;;;;;;;;;;;;;;;-0.76;92.26;98784.69;1746348;82;24385;-87
2021/12/21 03:29:24;;;;;;;;;;;;;;;-0.75;92.31;98782.06;1747319;80;20154;-86
2021/12/21 03:31:50;;;;;;;;;;;;;;;-0.72;92.35;98781.17;1739341;81;24727;-87
2021/12/21 03:34:17;;;;;;;;;;;;;;;-0.72;92.36;98779.88;1743114;80;22036;-87
2021/12/21 03:36:43;;;;;;;;;;;;;;;-0.72;92.39;98778.60;1755999;81;26113;-89
2021/12/21 03:39:16;;;;;;;;;;;;;;;-0.74;92.44;98784.20;1755634;81;24455;-83
2021/12/21 03:41:39;;;;;;;;;;;;;;;-0.72;92.47;98783.73;1752625;81;20223;-84
2021/12/21 03:44:09;;;;;;;;;;;;;;;-0.70;92.54;98786.67;1754954;80;24731;-88
2021/12/21 03:46:46;;;;;;;;;;;;;;;-0.68;92.56;98790.07;1754976;81;22661;-83
2021/12/21 03:49:31;;;;;;;;;;;;;;;-0.65;92.61;98791.72;1747722;81;26784;-86
2021/12/21 03:51:34;;;;;;;;;;;;;;;-0.63;92.65;98789.98;1752563;81;24498;-86
2021/12/21 03:54:00;;;;;;;;;;;;;;;-0.62;92.68;98790.39;1680616;82;20342;-89
2021/12/21 03:56:40;;;;;;;;;;;;;;;-0.62;92.73;98793.81;1695148;82;24940;-89
2021/12/21 03:59:09;;;;;;;;;;;;;;;-0.63;92.76;98802.39;1754199;81;22842;-88
2021/12/21 04:01:36;;;;;;;;;;;;;;;-0.65;92.80;98788.72;1750094;81;25969;-86
2021/12/21 04:04:03;;;;;;;;;;;;;;;-0.64;92.82;98797.27;1745604;81;24477;-87
2021/12/21 04:06:31;;;;;;;;;;;;;;;-0.67;92.87;98799.48;1748341;80;20211;-89
2021/12/21 04:09:01;;;;;;;;;;;;;;;-0.70;92.86;98801.23;1743187;81;25652;-88
2021/12/21 04:11:27;;;;;;;;;;;;;;;-0.73;92.87;98794.89;1748345;81;22010;-88
2021/12/21 04:13:54;;;;;;;;;;;;;;;-0.74;92.89;98798.33;1747416;81;26024;-89
2021/12/21 04:16:20;;;;;;;;;;;;;;;-0.72;92.94;98796.59;1739213;81;24460;-89
2021/12/21 04:18:46;;;;;;;;;;;;;;;-0.74;92.96;98797.05;1744057;81;20176;-84
2021/12/21 04:21:16;;;;;;;;;;;;;;;-0.74;92.99;98802.19;1745747;81;24753;-90
2021/12/21 04:23:43;;;;;;;;;;;;;;;-0.78;93.01;98805.26;1707657;83;21943;-90
2021/12/21 04:26:10;;;;;;;;;;;;;;;-0.79;93.04;98806.13;1749043;81;26032;-87
2021/12/21 04:28:36;;;;;;;;;;;;;;;-0.80;93.09;98801.86;1745682;81;24496;-87
2021/12/21 04:31:02;;;;;;;;;;;;;;;-0.82;93.13;98802.34;1746147;81;20227;-87
2021/12/21 04:33:28;;;;;;;;;;;;;;;-0.83;93.16;98797.22;1751674;81;24804;-87
2021/12/21 04:35:55;;;;;;;;;;;;;;;-0.84;93.20;98801.52;1745672;81;21974;-87
2021/12/21 04:38:27;;;;;;;;;;;;;;;-0.85;93.23;98804.95;1741910;82;25991;-87
2021/12/21 04:41:04;;;;;;;;;;;;;;;-0.85;93.31;98808.38;1743314;82;25122;-87
2021/12/21 04:43:26;;;;;;;;;;;;;;;-0.86;93.35;98805.82;1731045;81;20220;-86
2021/12/21 04:45:52;;;;;;;;;;;;;;;-0.84;93.40;98809.22;1742200;82;24739;-85
2021/12/21 04:48:18;;;;;;;;;;;;;;;-0.80;93.50;98799.72;1743525;81;21992;-86
2021/12/21 04:50:47;;;;;;;;;;;;;;;-0.79;93.59;98802.27;1737065;82;26557;-87
2021/12/21 04:53:15;;;;;;;;;;;;;;;-0.79;93.67;98802.27;1743275;82;24594;-87
2021/12/21 04:55:41;;;;;;;;;;;;;;;-0.81;93.73;98804.02;1739628;81;20464;-86
2021/12/21 04:58:07;;;;;;;;;;;;;;;-0.83;93.79;98808.35;1755644;81;24870;-86
2021/12/21 05:00:34;;;;;;;;;;;;;;;-0.83;93.84;98804.50;1750129;81;21977;-86
2021/12/21 05:03:00;;;;;;;;;;;;;;;-0.80;93.89;98808.72;1742626;81;26256;-86
2021/12/21 05:05:26;;;;;;;;;;;;;;;-0.82;93.94;98806.20;1751448;82;24564;-87
2021/12/21 05:08:06;;;;;;;;;;;;;;;-0.84;93.98;98804.08;1743807;81;20342;-87
2021/12/21 05:10:20;;;;;;;;;;;;;;;-0.83;94.03;98800.64;1756243;81;24817;-87
2021/12/21 05:12:47;;;;;;;;;;;;;;;-0.81;94.11;98804.02;1699954;83;22054;-84
2021/12/21 05:15:13;;;;;;;;;;;;;;;-0.77;94.20;98803.10;1705495;83;25944;-84
2021/12/21 05:17:39;;;;;;;;;;;;;;;-0.71;94.30;98805.53;1745687;81;24222;-87
2021/12/21 05:20:11;;;;;;;;;;;;;;;-0.70;94.35;98804.66;1760380;81;20157;-87
2021/12/21 05:22:38;;;;;;;;;;;;;;;-0.66;94.45;98802.47;1750672;81;24817;-87
2021/12/21 05:25:04;;;;;;;;;;;;;;;-0.60;94.54;98807.92;1744715;81;22068;-87
2021/12/21 05:27:30;;;;;;;;;;;;;;;-0.58;94.62;98801.86;1749996;81;26006;-90
2021/12/21 05:29:56;;;;;;;;;;;;;;;-0.61;94.69;98810.93;1741503;81;24397;-84
2021/12/21 05:32:26;;;;;;;;;;;;;;;-0.56;94.75;98812.13;1741902;81;20243;-83
2021/12/21 05:34:52;;;;;;;;;;;;;;;-0.53;94.83;98812.90;1730370;81;24841;-88
2021/12/21 05:37:20;;;;;;;;;;;;;;;-0.53;94.86;98810.77;1719875;80;22053;-86
2021/12/21 05:40:11;;;;;;;;;;;;;;;-0.52;94.89;98820.17;1726167;80;26077;-87
2021/12/21 05:42:29;;;;;;;;;;;;;;;-0.57;94.88;98823.27;1722703;81;24458;-88
2021/12/21 05:44:56;;;;;;;;;;;;;;;-0.63;94.89;98816.53;1746528;81;20250;-89
2021/12/21 05:47:22;;;;;;;;;;;;;;;-0.64;94.89;98817.83;1761864;81;24897;-86
2021/12/21 05:49:48;;;;;;;;;;;;;;;-0.63;94.91;98824.23;1752178;81;22082;-83
2021/12/21 05:52:14;;;;;;;;;;;;;;;-0.61;94.94;98817.36;1756419;81;26040;-87
2021/12/21 05:54:40;;;;;;;;;;;;;;;-0.64;94.95;98819.12;1718234;82;24555;-87
2021/12/21 05:57:06;;;;;;;;;;;;;;;-0.66;94.91;98827.31;1750576;81;20834;-87
2021/12/21 05:59:32;;;;;;;;;;;;;;;-0.71;94.88;98820.13;1750609;81;24769;-87
2021/12/21 06:01:59;;;;;;;;;;;;;;;-0.76;94.87;98825.33;1751050;81;22031;-88
2021/12/21 06:04:25;;;;;;;;;;;;;;;-0.77;94.85;98827.95;1751791;81;26048;-88
2021/12/21 06:06:53;;;;;;;;;;;;;;;-0.80;94.86;98828.84;1758924;80;24380;-86
2021/12/21 06:09:19;;;;;;;;;;;;;;;-0.84;94.84;98832.34;1727055;80;20539;-86
2021/12/21 06:12:11;;;;;;;;;;;;;;;-0.89;94.85;98825.16;1732369;81;24763;-86
2021/12/21 06:27:45;;;;;;;;;;;;;;;-0.67;95.23;98847.45;1754906;81;21959;-84
2021/12/21 06:30:17;;;;;;;;;;;;;;;-0.65;95.26;98841.83;1728434;81;26647;-84
2021/12/21 06:32:44;;;;;;;;;;;;;;;-0.68;95.27;98847.89;1745976;81;24410;-87
2021/12/21 06:35:11;;;;;;;;;;;;;;;-0.67;95.33;98853.45;1757258;81;20265;-86
2021/12/21 06:37:40;;;;;;;;;;;;;;;-0.65;95.37;98856.81;1751016;81;24923;-86
2021/12/21 06:40:07;;;;;;;;;;;;;;;-0.69;95.40;98856.47;1743484;81;22004;-87
2021/12/21 06:42:34;;;;;;;;;;;;;;;-0.71;95.39;98856.92;1743841;81;26048;-86
2021/12/21 06:45:02;;;;;;;;;;;;;;;-0.78;95.36;98852.80;1737349;81;24400;-87
2021/12/21 06:52:44;;;;;;;;;;;;;;;-0.83;95.36;98858.45;1725820;81;22678;-83
2021/12/21 06:55:10;;;;;;;;;;;;;;;-0.84;95.39;98860.60;1746895;81;26126;-86
2021/12/21 06:57:39;;;;;;;;;;;;;;;-0.86;95.38;98858.05;1737511;81;24494;-87
2021/12/21 07:00:07;;;;;;;;;;;;;;;-0.83;95.43;98862.73;1738919;81;20180;-87
2021/12/21 07:02:33;;;;;;;;;;;;;;;-0.82;95.48;98864.00;1740140;81;25630;-87
2021/12/21 07:05:00;;;;;;;;;;;;;;;-0.81;95.49;98864.82;1738796;81;22131;-87
2021/12/21 07:07:26;;;;;;;;;;;;;;;-0.83;95.50;98874.30;1745028;81;25998;-83
2021/12/21 07:09:59;;;;;;;;;;;;;;;-0.84;95.54;98874.73;1749796;80;24408;-83
2021/12/21 07:20:29;;;;;;;;;;;;;;;-0.70;95.77;98872.75;1759802;81;26049;-88
2021/12/21 07:22:56;;;;;;;;;;;;;;;-0.67;95.84;98880.86;1758045;81;24492;-88
2021/12/21 07:25:25;;;;;;;;;;;;;;;-0.70;95.88;98881.75;1753492;81;20168;-88
2021/12/21 07:27:53;;;;;;;;;;;;;;;-0.72;95.92;98883.52;1748663;81;25387;-89
2021/12/21 07:30:19;;;;;;;;;;;;;;;-0.67;95.99;98884.72;1719570;82;22005;-89
2021/12/21 07:32:45;;;;;;;;;;;;;;;-0.63;96.05;98875.63;1745869;81;26029;-88
2021/12/21 07:35:13;;;;;;;;;;;;;;;-0.60;96.11;98879.42;1754969;81;24462;-89
2021/12/21 07:37:39;;;;;;;;;;;;;;;-0.62;96.16;98885.05;1750917;81;20187;-88
2021/12/21 07:40:05;;;;;;;;;;;;;;;-0.66;96.14;98887.27;1761215;80;24957;-88
2021/12/21 07:42:31;;;;;;;;;;;;;;;-0.67;96.17;98889.42;1761231;80;22057;-87
2021/12/21 07:44:58;;;;;;;;;;;;;;;-0.63;96.21;98889.77;1769866;80;25977;-87
2021/12/21 07:47:24;;;;;;;;;;;;;;;-0.63;96.23;98886.35;1759635;80;24433;-87
2021/12/21 07:49:50;;;;;;;;;;;;;;;-0.57;96.30;98888.81;1753684;80;20273;-86
2021/12/21 07:52:17;;;;;;;;;;;;;;;-0.57;96.35;98893.95;1773849;81;24794;-86
2021/12/21 07:54:43;;;;;;;;;;;;;;;-0.62;96.36;98890.63;1768209;80;22043;-87
2021/12/21 07:57:10;;;;;;;;;;;;;;;-0.64;96.36;98894.49;1767282;80;26815;-87
2021/12/21 07:59:37;;;;;;;;;;;;;;;-0.60;96.40;98894.02;1759102;80;24394;-87
2021/12/21 08:02:05;;;;;;;;;;;;;;;-0.58;96.42;98899.97;1748675;80;20316;-87
2021/12/21 08:04:33;;;;;;;;;;;;;;;-0.52;96.47;98901.14;1753056;80;24792;-86
2021/12/21 08:07:05;;;;;;;;;;;;;;;-0.53;96.51;98897.72;1762694;81;22051;-85
2021/12/21 08:09:36;;;;;;;;;;;;;;;-0.54;96.52;98896.45;1763973;81;26706;-83
2021/12/21 08:12:13;;;;;;;;;;;;;;;-0.53;96.56;98900.30;1746255;81;24509;-84
2021/12/21 08:14:39;;;;;;;;;;;;;;;-0.51;96.59;98901.56;1747640;80;20221;-84
2021/12/21 08:17:07;;;;;;;;;;;;;;;-0.56;96.59;98902.94;1741708;80;24818;-84
2021/12/21 08:19:33;;;;;;;;;;;;;;;-0.57;96.60;98910.23;1753822;81;22086;-84
2021/12/21 08:21:59;;;;;;;;;;;;;;;-0.58;96.60;98911.09;1757826;81;25961;-84
2021/12/21 08:24:25;;;;;;;;;;;;;;;-0.53;96.60;98909.29;1749373;81;20342;-84
2021/12/21 08:26:51;;;;;;;;;;;;;;;-0.47;96.69;98901.47;1757561;80;20512;-84
2021/12/21 08:29:17;;;;;;;;;;;;;;;-0.34;96.79;98910.25;1757834;81;24807;-84
2021/12/21 08:31:43;;;;;;;;;;;;;;;-0.28;96.90;98911.42;1759714;81;22096;-88
2021/12/21 08:34:12;;;;;;;;;;;;;;;-0.25;96.98;98916.50;1746710;81;26679;-88
2021/12/21 08:36:37;;;;;;;;;;;;;;;-0.24;96.99;98916.91;1758600;81;24465;-88
2021/12/21 08:39:04;;;;;;;;;;;;;;;-0.25;97.03;98919.06;1731598;81;20338;-88
2021/12/21 08:41:33;;;;;;;;;;;;;;;-0.27;97.02;98919.09;1739738;81;24284;-87
2021/12/21 08:43:59;;;;;;;;;;;;;;;-0.23;97.08;98923.75;1750673;81;22123;-87
2021/12/21 08:46:25;;;;;;;;;;;;;;;-0.16;97.12;98920.17;1732166;82;26021;-87
2021/12/21 08:48:54;;;;;;;;;;;;;;;-0.16;97.16;98922.73;1721816;82;24419;-87
2021/12/21 08:51:21;;;;;;;;;;;;;;;-0.17;97.17;98912.06;1751911;80;20267;-87
2021/12/21 08:53:47;;;;;;;;;;;;;;;-0.16;97.16;98915.02;1752908;81;24706;-87
2021/12/21 08:56:13;;;;;;;;;;;;;;;-0.14;97.17;98913.28;1728403;81;21936;-87
2021/12/21 08:58:43;;;;;;;;;;;;;;;-0.11;97.18;98920.48;1756222;81;25947;-87
2021/12/21 09:01:07;;;;;;;;;;;;;;;-0.07;97.20;98927.30;1743984;80;24535;-84
2021/12/21 09:03:34;;;;;;;;;;;;;;;-0.03;97.22;98931.92;1755216;80;20233;-84
2021/12/21 09:06:00;;;;;;;;;;;;;;;-0.03;97.22;98935.35;1748859;80;24802;-84
2021/12/21 09:08:27;;;;;;;;;;;;;;;0.00;97.23;98926.27;1750581;80;21987;-84
2021/12/21 09:10:53;;;;;;;;;;;;;;;0.02;97.21;98935.69;1748887;80;26652;-84
2021/12/21 09:13:19;;;;;;;;;;;;;;;0.05;97.23;98931.36;1695430;82;24669;-84
2021/12/21 09:15:45;;;;;;;;;;;;;;;0.05;97.21;98927.93;1675036;84;20476;-84
2021/12/21 09:18:12;;;;;;;;;;;;;;;0.07;97.20;98936.01;1715025;81;24745;-84
2021/12/21 09:20:38;;;;;;;;;;;;;;;0.10;97.21;98935.97;1741530;80;21948;-84
2021/12/21 09:23:04;;;;;;;;;;;;;;;0.14;97.22;98942.73;1760351;81;26001;-84
2021/12/21 09:25:30;;;;;;;;;;;;;;;0.12;97.22;98938.48;1756797;81;24700;-85
2021/12/21 09:27:57;;;;;;;;;;;;;;;0.10;97.18;98942.40;1755782;81;20188;-87
2021/12/21 09:30:23;;;;;;;;;;;;;;;0.11;97.16;98942.78;1739998;80;24754;-87
2021/12/21 09:32:51;;;;;;;;;;;;;;;0.13;97.18;98946.19;1743030;81;22082;-87
2021/12/21 09:35:18;;;;;;;;;;;;;;;0.17;97.17;98949.53;1726283;81;25833;-88
2021/12/21 09:37:44;;;;;;;;;;;;;;;0.19;97.17;98948.64;1743476;81;25152;-87
2021/12/21 09:40:12;;;;;;;;;;;;;;;0.21;97.17;98946.89;1761485;80;20210;-86
2021/12/21 09:42:38;;;;;;;;;;;;;;;0.24;97.16;98954.98;1762604;80;24766;-87
2021/12/21 09:45:06;;;;;;;;;;;;;;;0.22;97.15;98951.13;1745134;81;22014;-86
2021/12/21 09:47:32;;;;;;;;;;;;;;;0.17;97.09;98949.09;1752202;81;25990;-87
2021/12/21 09:49:58;;;;;;;;;;;;;;;0.10;97.00;98949.27;1757012;81;25082;-87
2021/12/21 09:52:29;;;;;;;;;;;;;;;0.07;96.92;98949.31;1756329;81;20210;-87
2021/12/21 09:54:54;;;;;;;;;;;;;;;0.05;96.85;98945.50;1721802;81;24763;-87
2021/12/21 09:57:26;;;;;;;;;;;;;;;0.00;96.77;98949.42;1730107;81;22219;-88
2021/12/21 09:59:52;;;;;;;;;;;;;;;-0.02;96.70;98947.78;1739522;81;26031;-88
2021/12/21 10:02:21;;;;;;;;;;;;;;;0.08;96.70;98937.71;1741386;81;24457;-88
2021/12/21 10:04:48;;;;;;;;;;;;;;;0.17;96.67;98941.37;1758642;81;20249;-88
2021/12/21 10:07:15;;;;;;;;;;;;;;;0.22;96.66;98945.17;1753635;81;24769;-87
2021/12/21 10:09:43;;;;;;;;;;;;;;;0.25;96.67;98942.52;1750426;81;22027;-87
2021/12/21 10:12:13;;;;;;;;;;;;;;;0.25;96.65;98934.36;1668715;84;26713;-87
2021/12/21 10:14:44;;;;;;;;;;;;;;;0.25;96.58;98933.08;1690344;84;25628;-88
2021/12/21 10:17:11;;;;;;;;;;;;;;;0.29;96.57;98936.42;1671277;84;20599;-87
2021/12/21 10:19:37;;;;;;;;;;;;;;;0.33;96.50;98937.61;1680630;84;24737;-88
2021/12/21 10:22:08;;;;;;;;;;;;;;;0.43;96.50;98943.44;1677987;84;22008;-87
2021/12/21 10:24:36;;;;;;;;;;;;;;;0.49;96.47;98943.31;1708873;83;25956;-88
2021/12/21 10:27:07;;;;;;;;;;;;;;;0.56;96.48;98937.56;1647061;85;24657;-88
2021/12/21 10:29:43;;;;;;;;;;;;;;;0.50;96.39;98939.83;1688658;83;20310;-83
2021/12/21 10:32:17;;;;;;;;;;;;;;;0.47;96.31;98942.92;1681846;84;24873;-86
2021/12/21 10:35:02;;;;;;;;;;;;;;;0.48;96.22;98932.59;1683852;84;21958;-86
2021/12/21 10:37:29;;;;;;;;;;;;;;;0.55;96.18;98927.70;1683723;84;26066;-88
2021/12/21 10:40:06;;;;;;;;;;;;;;;0.56;96.12;98920.83;1684342;82;24347;-87
2021/12/21 10:42:34;;;;;;;;;;;;;;;0.54;96.02;98919.59;1687109;84;20224;-87
2021/12/21 10:45:05;;;;;;;;;;;;;;;0.53;95.93;98917.89;1690629;84;24780;-87
2021/12/21 10:47:32;;;;;;;;;;;;;;;0.45;95.82;98917.64;1688275;84;22770;-87
2021/12/21 10:49:58;;;;;;;;;;;;;;;0.41;95.73;98915.14;1681664;84;26636;-87
2021/12/21 10:52:24;;;;;;;;;;;;;;;0.45;95.68;98917.64;1684699;84;24435;-87
2021/12/21 10:54:51;;;;;;;;;;;;;;;0.49;95.62;98907.27;1685088;84;20204;-87
2021/12/21 10:57:19;;;;;;;;;;;;;;;0.48;95.54;98913.73;1674957;84;24712;-87
2021/12/21 10:59:49;;;;;;;;;;;;;;;0.55;95.51;98903.67;1670143;84;21701;-87
2021/12/21 11:02:22;;;;;;;;;;;;;;;0.56;95.42;98907.95;1685532;84;25997;-87
2021/12/21 11:04:51;;;;;;;;;;;;;;;0.55;95.35;98906.25;1683892;84;24536;-87
2021/12/21 11:07:25;;;;;;;;;;;;;;;0.52;95.21;98909.76;1684742;84;20255;-87
2021/12/21 11:09:54;;;;;;;;;;;;;;;0.50;95.11;98908.08;1677295;84;24422;-87
2021/12/21 11:12:22;;;;;;;;;;;;;;;0.53;95.01;98909.31;1684504;84;22098;-84
2021/12/21 11:14:49;;;;;;;;;;;;;;;0.57;94.95;98909.65;1682575;84;26740;-83
2021/12/21 11:17:21;;;;;;;;;;;;;;;0.65;94.90;98907.77;1680362;84;24564;-86
2021/12/21 11:19:47;;;;;;;;;;;;;;;0.70;94.82;98912.38;1681179;84;20685;-87
2021/12/21 11:22:13;;;;;;;;;;;;;;;0.72;94.77;98913.16;1685400;83;24839;-86
2021/12/21 11:24:39;;;;;;;;;;;;;;;0.75;94.73;98907.96;1684767;83;22046;-87
2021/12/21 11:27:06;;;;;;;;;;;;;;;0.76;94.62;98901.93;1694103;84;25983;-87
2021/12/21 11:29:34;;;;;;;;;;;;;;;0.76;94.54;98904.50;1689968;83;25256;-87
2021/12/21 11:32:01;;;;;;;;;;;;;;;0.76;94.41;98907.08;1686940;84;20314;-87
2021/12/21 11:34:32;;;;;;;;;;;;;;;0.71;94.22;98907.62;1694504;84;24734;-86
2021/12/21 11:39:42;;;;;;;;;;;;;;;0.65;93.87;98905.19;1702899;82;26610;-87
2021/12/21 11:42:09;;;;;;;;;;;;;;;0.62;93.68;98902.23;1729173;82;24695;-87
2021/12/21 11:44:54;;;;;;;;;;;;;;;0.58;93.52;98899.33;1737215;82;20225;-87
2021/12/21 11:47:22;;;;;;;;;;;;;;;0.56;93.37;98889.48;1719835;82;24660;-87
2021/12/21 11:49:50;;;;;;;;;;;;;;;0.53;93.22;98893.88;1727999;81;22007;-86
2021/12/21 11:52:21;;;;;;;;;;;;;;;0.48;93.06;98904.27;1730404;82;25966;-84
2021/12/21 11:54:49;;;;;;;;;;;;;;;0.39;92.91;98894.16;1727798;81;25219;-87
2021/12/21 11:57:16;;;;;;;;;;;;;;;0.44;92.83;98897.48;1717796;82;20291;-87
2021/12/21 11:59:43;;;;;;;;;;;;;;;0.48;92.77;98897.84;1720906;82;24827;-87
2021/12/21 12:02:10;;;;;;;;;;;;;;;0.53;92.73;98893.44;1717619;82;22120;-87
2021/12/21 12:04:37;;;;;;;;;;;;;;;0.56;92.67;98895.08;1725120;82;25664;-88
2021/12/21 12:07:05;;;;;;;;;;;;;;;0.57;92.65;98895.05;1723251;82;24658;-88
2021/12/21 12:09:33;;;;;;;;;;;;;;;0.58;92.58;98891.59;1707709;82;20565;-87
2021/12/21 12:12:07;;;;;;;;;;;;;;;0.61;92.55;98892.80;1705142;81;25433;-87
2021/12/21 12:14:35;;;;;;;;;;;;;;;0.65;92.52;98895.73;1719244;82;22076;-87
2021/12/21 12:17:05;;;;;;;;;;;;;;;0.69;92.48;98892.64;1728876;82;26625;-87
2021/12/21 12:19:33;;;;;;;;;;;;;;;0.65;92.43;98893.60;1711813;82;25277;-84
2021/12/21 12:22:01;;;;;;;;;;;;;;;0.56;92.34;98893.79;1724547;82;20869;-84
2021/12/21 12:24:29;;;;;;;;;;;;;;;0.39;92.18;98891.58;1715528;82;24752;-84
2021/12/21 12:26:57;;;;;;;;;;;;;;;0.20;91.93;98899.30;1726428;82;22217;-84
2021/12/21 12:29:25;;;;;;;;;;;;;;;0.15;91.74;98899.41;1727935;82;26149;-86
2021/12/21 12:32:05;;;;;;;;;;;;;;;0.19;91.62;98901.03;1714496;82;25152;-86
2021/12/21 12:34:32;;;;;;;;;;;;;;;0.19;91.51;98896.32;1728363;82;20289;-86
2021/12/21 12:36:59;;;;;;;;;;;;;;;0.22;91.46;98902.23;1724933;82;24833;-86
2021/12/21 12:39:27;;;;;;;;;;;;;;;0.30;91.44;98901.65;1716875;81;21966;-84
2021/12/21 12:41:53;;;;;;;;;;;;;;;0.38;91.42;98897.64;1727835;81;26951;-87
2021/12/21 12:44:21;;;;;;;;;;;;;;;0.52;91.49;98896.03;1716162;81;24476;-87
2021/12/21 12:46:55;;;;;;;;;;;;;;;0.46;91.44;98907.75;1723222;81;20600;-87
2021/12/21 12:49:22;;;;;;;;;;;;;;;0.40;91.41;98901.00;1714371;81;25521;-87
2021/12/21 12:51:48;;;;;;;;;;;;;;;0.35;91.34;98893.83;1720426;81;21937;-88
2021/12/21 12:54:16;;;;;;;;;;;;;;;0.27;91.26;98900.88;1730254;81;26031;-88
2021/12/21 12:56:42;;;;;;;;;;;;;;;0.12;91.09;98891.73;1703574;82;24460;-88
2021/12/21 12:59:09;;;;;;;;;;;;;;;0.05;90.93;98902.20;1703372;81;20240;-84
2021/12/21 13:01:39;;;;;;;;;;;;;;;-0.05;90.76;98902.80;1725374;81;24915;-85
2021/12/21 13:04:08;;;;;;;;;;;;;;;-0.11;90.64;98902.48;1716403;81;21936;-87
2021/12/21 13:06:35;;;;;;;;;;;;;;;-0.16;90.51;98903.02;1723226;81;25998;-87
2021/12/21 13:09:03;;;;;;;;;;;;;;;-0.23;90.36;98902.75;1716661;81;24540;-87
2021/12/21 13:11:33;;;;;;;;;;;;;;;-0.27;90.27;98902.84;1721457;81;20208;-87
2021/12/21 13:14:04;;;;;;;;;;;;;;;-0.30;90.18;98904.16;1695282;82;24758;-87
2021/12/21 13:16:31;;;;;;;;;;;;;;;-0.31;90.11;98903.75;1711910;81;22009;-87
2021/12/21 13:18:59;;;;;;;;;;;;;;;-0.27;90.11;98903.66;1707282;81;26107;-86
2021/12/21 13:21:35;;;;;;;;;;;;;;;-0.19;90.14;98908.66;1718924;81;24484;-87
2021/12/21 13:24:08;;;;;;;;;;;;;;;-0.06;90.21;98905.84;1718376;81;20519;-83
2021/12/21 13:26:36;;;;;;;;;;;;;;;0.03;90.31;98907.37;1723187;81;23731;-86
2021/12/21 13:29:03;;;;;;;;;;;;;;;0.08;90.37;98901.69;1717918;81;21708;-86
2021/12/21 13:31:30;;;;;;;;;;;;;;;0.24;90.46;98908.65;1695617;81;26299;-87
2021/12/21 13:33:58;;;;;;;;;;;;;;;0.32;90.54;98904.20;1720177;81;24513;-83
2021/12/21 13:36:32;;;;;;;;;;;;;;;0.30;90.54;98908.09;1734405;81;20305;-84
2021/12/21 13:38:59;;;;;;;;;;;;;;;0.28;90.48;98907.26;1721801;81;25040;-88
2021/12/21 13:41:25;;;;;;;;;;;;;;;0.32;90.50;98912.77;1705130;81;21308;-83
2021/12/21 13:43:56;;;;;;;;;;;;;;;0.34;90.49;98916.14;1717764;81;25979;-84
2021/12/21 13:46:22;;;;;;;;;;;;;;;0.30;90.45;98915.81;1687841;84;24422;-84